Time;durP1;ratioP1;P1;durP2;ratioP2;P2;SDS_P1;SDS_P2;PMS_P1;PMS_P2;Temp;Humidity;BMP_temperature;BMP_pressure;BME280_temperature;BME280_humidity;BME280_pressure;Samples;Min_cycle;Max_cycle;Signal;HPM_P1;HPM_P2
2022/10/20 00:00:47;;;;;;;13.60;11.30;;;;;;;5.42;77.83;99828.48;86327;1287;22619;-74
2022/10/20 00:03:04;;;;;;;15.40;12.20;;;;;;;5.38;78.07;99825.39;86376;1287;22500;-75
2022/10/20 00:05:06;;;;;;;15.30;11.50;;;;;;;5.35;78.14;99829.60;86213;1286;98977;-75
2022/10/20 00:07:07;;;;;;;14.50;11.50;;;;;;;5.32;78.00;99832.09;86521;1279;22473;-75
2022/10/20 00:09:08;;;;;;;14.70;9.60;;;;;;;5.29;78.11;99833.34;86408;1295;22939;-75
2022/10/20 00:11:13;;;;;;;11.70;10.30;;;;;;;5.25;78.04;99833.40;86254;1287;99048;-75
2022/10/20 00:13:14;;;;;;;15.60;9.70;;;;;;;5.17;77.90;99830.72;86459;1290;23108;-75
2022/10/20 00:15:15;;;;;;;;;;;;;;;5.12;77.79;99836.34;86325;1284;24242;-75
2022/10/20 00:17:16;;;;;;;12.80;9.20;;;;;;;5.07;77.93;99835.70;86424;1279;84986;-73
2022/10/20 00:19:17;;;;;;;12.40;8.80;;;;;;;5.01;77.91;99839.61;86219;1288;22471;-75
2022/10/20 00:21:21;;;;;;;9.90;8.90;;;;;;;4.98;77.94;99838.42;86251;1286;22586;-75
2022/10/20 00:23:23;;;;;;;10.60;8.30;;;;;;;4.94;78.01;99840.55;86413;1282;98725;-75
2022/10/20 00:25:24;;;;;;;14.90;8.10;;;;;;;4.89;77.85;99836.78;86162;1294;24296;-75
2022/10/20 00:27:25;;;;;;;11.50;6.10;;;;;;;4.85;77.89;99834.91;86225;1295;99809;-74
2022/10/20 00:29:26;;;;;;;12.80;7.00;;;;;;;4.86;78.13;99836.46;86343;1286;22522;-75
2022/10/20 00:31:30;;;;;;;13.20;7.00;;;;;;;4.88;78.19;99839.21;86297;1287;24289;-75
2022/10/20 00:33:32;;;;;;;7.20;6.10;;;;;;;4.90;78.22;99835.02;86184;1288;98071;-74
2022/10/20 00:35:37;;;;;;;7.60;5.70;;;;;;;4.92;78.26;99835.70;86475;1295;24259;-74
2022/10/20 00:37:37;;;;;;;12.40;6.30;;;;;;;4.91;78.08;99835.72;86405;1285;22457;-75
2022/10/20 00:39:38;;;;;;;7.80;5.90;;;;;;;4.90;78.18;99836.94;86213;1285;99145;-74
2022/10/20 00:41:39;;;;;;;6.40;5.30;;;;;;;4.89;78.22;99838.18;86396;1289;22532;-75
2022/10/20 00:43:55;;;;;;;8.20;5.70;;;;;;;4.89;78.19;99837.65;86324;1281;22462;-74
2022/10/20 00:45:56;;;;;;;11.50;5.80;;;;;;;4.85;78.05;99836.48;86322;1281;97790;-76
2022/10/20 00:48:30;;;;;;;5.70;5.10;;;;;;;4.81;78.04;99830.95;86474;1285;22510;-74
2022/10/20 00:50:39;;;;;;;7.70;5.10;;;;;;;4.75;78.05;99831.70;86196;1298;22618;-74
2022/10/20 00:52:41;;;;;;;6.40;5.70;;;;;;;4.70;77.90;99830.36;85844;1299;99305;-75
2022/10/20 00:54:43;;;;;;;7.90;5.00;;;;;;;4.68;78.01;99830.57;86000;1293;22623;-75
2022/10/20 00:56:46;;;;;;;;;;;;;;;4.65;77.86;99833.39;85740;1295;22506;-74
2022/10/20 00:58:48;;;;;;;10.40;6.00;;;;;;;4.57;77.86;99837.63;85966;1299;84731;-75
2022/10/20 01:00:53;;;;;;;16.10;6.60;;;;;;;4.52;78.15;99839.60;86004;1292;25310;-74
2022/10/20 01:02:59;;;;;;;8.20;5.80;;;;;;;4.48;78.07;99838.60;85848;1302;23255;-75
2022/10/20 01:05:01;;;;;;;10.50;5.40;;;;;;;4.43;78.00;99836.03;86048;1315;98744;-76
2022/10/20 01:07:02;;;;;;;8.60;5.90;;;;;;;4.40;77.97;99831.70;86053;1301;22495;-75
2022/10/20 01:09:03;;;;;;;;;;;;;;;4.36;78.01;99836.08;85934;1294;25156;-75
2022/10/20 01:11:07;;;;;;;7.30;5.90;;;;;;;4.32;77.89;99833.70;85971;1301;85201;-76
2022/10/20 01:13:14;;;;;;;8.60;5.50;;;;;;;4.32;78.33;99832.83;86150;1291;22774;-76
2022/10/20 01:15:34;;;;;;;6.40;5.60;;;;;;;4.33;78.29;99833.86;86293;1291;22482;-75
2022/10/20 01:17:52;;;;;;;8.60;5.50;;;;;;;4.34;78.11;99828.10;86349;1298;22513;-74
2022/10/20 01:20:06;;;;;;;10.10;5.50;;;;;;;4.32;78.31;99823.95;86037;1295;22477;-75
2022/10/20 01:22:17;;;;;;;7.40;5.50;;;;;;;4.30;78.32;99826.77;86100;1294;99048;-75
2022/10/20 01:25:05;;;;;;;9.10;6.70;;;;;;;4.27;78.09;99832.52;86179;1298;22516;-75
2022/10/20 01:27:18;;;;;;;15.10;6.00;;;;;;;4.22;78.34;99833.60;85628;1294;22494;-76
2022/10/20 01:29:50;;;;;;;6.10;5.50;;;;;;;4.21;78.17;99832.39;85803;1302;98188;-74
2022/10/20 01:32:12;;;;;;;7.10;5.60;;;;;;;4.18;78.11;99833.11;85882;1294;22531;-75
2022/10/20 01:34:49;;;;;;;8.80;5.60;;;;;;;4.15;77.88;99831.75;85901;1301;98549;-76
2022/10/20 01:37:13;;;;;;;13.20;5.80;;;;;;;4.11;78.17;99834.73;85814;1302;22437;-75
2022/10/20 01:39:34;;;;;;;9.70;5.90;;;;;;;4.12;78.35;99838.05;85603;1297;22458;-75
2022/10/20 01:41:45;;;;;;;6.80;6.10;;;;;;;4.09;78.20;99838.93;85709;1295;22540;-76
2022/10/20 01:43:48;;;;;;;12.30;6.50;;;;;;;4.04;78.39;99839.48;85759;1286;22922;-75
2022/10/20 01:45:51;;;;;;;14.20;6.10;;;;;;;3.98;78.11;99844.58;85843;1297;99171;-76
2022/10/20 01:47:53;;;;;;;7.00;5.80;;;;;;;3.91;78.07;99846.38;85966;1294;25842;-75
2022/10/20 01:49:56;;;;;;;8.20;6.30;;;;;;;3.85;77.88;99842.24;85800;1296;24322;-76
2022/10/20 01:51:57;;;;;;;9.20;5.70;;;;;;;3.79;78.11;99837.75;85561;1302;98225;-76
2022/10/20 01:53:58;;;;;;;9.60;6.00;;;;;;;3.72;77.88;99827.54;85881;1297;22853;-76
2022/10/20 01:56:00;;;;;;;7.80;5.70;;;;;;;3.69;78.25;99832.77;85787;1306;24361;-76
2022/10/20 01:58:44;;;;;;;6.40;5.80;;;;;;;3.66;78.18;99832.27;86023;1287;99742;-76
2022/10/20 02:00:46;;;;;;;7.50;5.70;;;;;;;3.61;78.14;99833.17;86593;1288;22487;-76
2022/10/20 02:02:55;;;;;;;6.00;5.50;;;;;;;3.55;78.19;99835.11;86533;1295;23003;-75
2022/10/20 02:05:16;;;;;;;5.60;5.00;;;;;;;3.50;78.08;99831.84;86632;1278;98928;-76
2022/10/20 02:07:26;;;;;;;9.10;5.20;;;;;;;3.44;78.13;99828.77;86690;1304;22734;-77
2022/10/20 02:09:39;;;;;;;11.00;5.90;;;;;;;3.40;78.14;99828.77;86536;1286;23891;-77
2022/10/20 02:12:01;;;;;;;8.30;5.50;;;;;;;3.36;78.26;99826.71;86458;1288;23592;-76
2022/10/20 02:14:04;;;;;;;7.80;5.80;;;;;;;3.31;78.20;99829.17;86548;1310;23073;-77
2022/10/20 02:16:15;;;;;;;8.90;5.70;;;;;;;3.29;78.22;99828.66;86457;1295;98662;-76
2022/10/20 02:18:21;;;;;;;7.40;5.70;;;;;;;3.26;78.56;99823.64;86596;1307;22546;-77
2022/10/20 02:20:23;;;;;;;6.30;5.70;;;;;;;3.23;78.60;99827.81;86757;1302;24276;-76
2022/10/20 02:22:25;;;;;;;10.80;5.80;;;;;;;3.21;78.35;99824.69;86579;1295;97934;-76
2022/10/20 02:24:33;;;;;;;14.70;6.00;;;;;;;3.18;78.49;99825.39;86547;1287;22895;-76
2022/10/20 02:26:38;;;;;;;7.90;7.00;;;;;;;3.17;78.47;99829.41;86665;1289;22608;-75
2022/10/20 02:28:47;;;;;;;6.90;6.20;;;;;;;3.16;78.30;99829.58;86513;1296;99336;-77
2022/10/20 02:30:48;;;;;;;8.50;5.90;;;;;;;3.14;78.25;99833.40;86698;1288;22494;-76
2022/10/20 02:32:51;;;;;;;12.20;6.40;;;;;;;3.13;78.32;99834.10;86678;1281;24241;-77
2022/10/20 02:34:52;;;;;;;7.00;6.30;;;;;;;3.11;78.45;99833.42;86360;1294;97746;-77
2022/10/20 02:36:57;;;;;;;16.30;6.60;;;;;;;3.08;78.43;99831.88;86486;1295;24405;-76
2022/10/20 02:38:58;;;;;;;8.00;6.60;;;;;;;3.05;78.28;99836.75;86584;1288;22474;-75
2022/10/20 02:40:59;;;;;;;8.50;6.70;;;;;;;3.03;78.67;99837.61;86503;1288;97706;-76
2022/10/20 02:43:00;;;;;;;8.60;6.40;;;;;;;3.02;78.51;99839.37;86400;1312;22502;-76
2022/10/20 02:45:01;;;;;;;7.60;6.90;;;;;;;3.00;78.52;99835.38;86325;1288;25288;-76
2022/10/20 02:47:03;;;;;;;13.00;7.00;;;;;;;2.98;78.39;99833.64;86371;1298;98512;-76
2022/10/20 02:49:05;;;;;;;;;;;;;;;2.96;78.53;99830.52;86704;1291;23305;-77
2022/10/20 02:51:06;;;;;;;13.70;5.60;;;;;;;2.91;78.47;99829.85;86612;1284;24219;-76
2022/10/20 02:53:07;;;;;;;8.00;5.90;;;;;;;2.86;78.33;99830.39;86531;1288;99288;-78
2022/10/20 02:55:08;;;;;;;8.60;6.90;;;;;;;2.80;78.10;99832.13;86501;1288;22445;-78
2022/10/20 02:57:09;;;;;;;10.40;6.40;;;;;;;2.74;78.22;99836.15;86592;1302;23699;-78
2022/10/20 02:59:15;;;;;;;9.90;6.40;;;;;;;2.67;78.12;99839.45;86556;1278;97967;-77
2022/10/20 03:01:16;;;;;;;6.70;6.00;;;;;;;2.61;78.21;99846.58;86557;1284;22523;-78
2022/10/20 03:03:18;;;;;;;7.50;6.70;;;;;;;2.58;78.26;99849.19;86474;1288;22616;-76
2022/10/20 03:05:18;;;;;;;;;;;;;;;2.56;78.43;99850.23;86591;1281;98877;-78
2022/10/20 03:07:19;;;;;;;9.10;7.20;;;;;;;2.54;78.52;99850.77;86625;1288;22491;-77
2022/10/20 03:09:21;;;;;;;9.50;6.30;;;;;;;2.54;78.64;99851.96;86526;1293;23138;-77
2022/10/20 03:11:25;;;;;;;17.60;7.20;;;;;;;2.52;78.58;99854.23;86356;1295;98730;-77
2022/10/20 03:13:25;;;;;;;14.10;8.00;;;;;;;2.49;78.22;99855.45;86559;1278;24281;-78
2022/10/20 03:15:26;;;;;;;12.10;7.20;;;;;;;2.45;78.49;99853.37;86486;1293;22665;-78
2022/10/20 03:17:27;;;;;;;16.30;7.30;;;;;;;2.44;78.65;99851.29;86386;1288;98000;-78
2022/10/20 03:19:29;;;;;;;12.30;7.80;;;;;;;2.43;78.52;99851.81;86503;1297;22883;-78
2022/10/20 03:21:30;;;;;;;9.80;7.40;;;;;;;2.42;78.59;99855.29;86518;1284;22614;-77
2022/10/20 03:23:31;;;;;;;8.20;6.90;;;;;;;2.41;78.91;99859.96;86618;1307;97766;-76
2022/10/20 03:25:31;;;;;;;9.80;7.60;;;;;;;2.42;78.73;99862.91;86469;1288;22548;-77
2022/10/20 03:27:33;;;;;;;16.90;7.60;;;;;;;2.42;78.58;99865.16;86498;1298;24327;-78
2022/10/20 03:29:34;;;;;;;9.30;7.70;;;;;;;2.42;78.74;99870.02;86477;1295;97990;-77
2022/10/20 03:31:35;;;;;;;10.20;7.30;;;;;;;2.43;78.92;99866.89;86363;1291;22672;-76
2022/10/20 03:33:36;;;;;;;10.10;6.90;;;;;;;2.43;78.39;99874.88;86496;1286;99224;-80
2022/10/20 03:35:37;;;;;;;10.90;8.00;;;;;;;2.41;78.76;99875.75;86579;1285;22523;-77
2022/10/20 03:37:37;;;;;;;11.00;7.30;;;;;;;2.41;78.77;99873.68;86463;1296;22462;-78
2022/10/20 03:39:38;;;;;;;9.60;7.10;;;;;;;2.41;78.71;99875.05;86423;1295;97950;-76
2022/10/20 03:41:39;;;;;;;8.10;7.20;;;;;;;2.40;78.77;99877.67;86519;1288;22521;-78
2022/10/20 03:43:41;;;;;;;11.00;7.90;;;;;;;2.39;78.69;99882.69;86488;1301;22474;-77
2022/10/20 03:45:42;;;;;;;13.80;7.70;;;;;;;2.38;78.69;99883.38;86629;1290;97938;-77
2022/10/20 03:47:44;;;;;;;9.80;6.60;;;;;;;2.37;78.60;99886.67;86715;1292;22478;-77
2022/10/20 03:49:44;;;;;;;8.90;6.50;;;;;;;2.35;78.63;99886.67;86525;1295;23636;-77
2022/10/20 03:51:47;;;;;;;10.30;7.40;;;;;;;2.31;78.70;99886.50;86495;1278;97841;-77
2022/10/20 03:53:49;;;;;;;9.80;7.50;;;;;;;2.28;78.87;99884.59;86721;1287;22551;-77
2022/10/20 03:55:50;;;;;;;7.70;6.90;;;;;;;2.27;78.70;99886.85;86579;1286;22484;-77
2022/10/20 03:57:51;;;;;;;9.40;7.90;;;;;;;2.27;79.08;99892.05;86484;1285;97728;-78
2022/10/20 03:59:52;;;;;;;11.50;7.50;;;;;;;2.23;78.69;99891.53;86500;1287;22483;-77
2022/10/20 04:01:53;;;;;;;8.10;6.60;;;;;;;2.20;78.81;99891.53;86473;1293;24265;-77
2022/10/20 04:03:54;;;;;;;13.40;7.20;;;;;;;2.19;79.10;99890.31;86443;1287;100664;-76
2022/10/20 04:05:55;;;;;;;10.00;7.40;;;;;;;2.16;78.77;99892.05;86584;1295;22753;-78
2022/10/20 04:07:56;;;;;;;9.90;7.60;;;;;;;2.13;78.74;99894.48;86460;1294;22559;-77
2022/10/20 04:09:57;;;;;;;10.20;6.80;;;;;;;2.09;78.59;99889.79;86384;1308;98836;-75
2022/10/20 04:11:58;;;;;;;;;;;;;;;2.05;78.45;99889.95;86698;1285;22497;-77
2022/10/20 04:13:59;;;;;;;10.30;7.60;;;;;;;1.99;78.78;99890.29;86531;1287;21863;-75
2022/10/20 04:16:00;;;;;;;11.10;7.60;;;;;;;1.97;79.02;99889.25;86266;1312;99217;-78
2022/10/20 04:18:01;;;;;;;10.10;7.40;;;;;;;1.96;78.82;99886.83;86602;1295;25619;-77
2022/10/20 04:20:03;;;;;;;15.60;7.90;;;;;;;1.94;78.76;99884.74;86436;1285;22673;-76
2022/10/20 04:22:04;;;;;;;9.70;7.60;;;;;;;1.93;78.93;99888.71;86384;1284;97904;-75
2022/10/20 04:24:06;;;;;;;9.90;7.00;;;;;;;1.91;78.83;99888.20;86631;1295;22559;-76
2022/10/20 04:26:12;;;;;;;9.20;7.80;;;;;;;1.89;78.79;99888.89;86520;1301;22574;-76
2022/10/20 04:28:15;;;;;;;14.60;7.60;;;;;;;1.89;78.82;99886.13;86539;1288;98234;-76
2022/10/20 04:30:16;;;;;;;8.70;7.40;;;;;;;1.89;78.96;99890.27;86506;1286;22916;-75
2022/10/20 04:32:17;;;;;;;;;;;;;;;1.87;79.13;99887.50;86544;1288;23104;-75
2022/10/20 04:34:18;;;;;;;15.40;7.20;;;;;;;1.83;78.87;99883.85;86545;1288;85539;-76
2022/10/20 04:36:19;;;;;;;16.10;6.90;;;;;;;1.80;79.22;99886.80;86539;1287;22474;-76
2022/10/20 04:38:20;;;;;;;;;;;;;;;1.80;79.03;99888.18;86670;1287;22465;-75
2022/10/20 04:40:21;;;;;;;9.90;6.80;;;;;;;1.78;79.08;99882.98;86559;1287;85709;-76
2022/10/20 04:42:22;;;;;;;11.50;8.30;;;;;;;1.76;79.04;99882.27;86569;1278;22672;-75
2022/10/20 04:44:23;;;;;;;8.40;6.40;;;;;;;1.75;79.01;99882.97;86714;1284;22941;-75
2022/10/20 04:46:25;;;;;;;8.10;7.40;;;;;;;1.75;79.26;99884.18;86508;1288;98716;-74
2022/10/20 04:48:26;;;;;;;13.80;7.80;;;;;;;1.73;79.20;99889.90;86698;1284;22520;-75
2022/10/20 04:50:27;;;;;;;12.60;8.10;;;;;;;1.71;78.96;99883.48;86606;1284;22569;-74
2022/10/20 04:52:28;;;;;;;13.70;7.70;;;;;;;1.71;79.07;99885.05;86736;1288;97940;-75
2022/10/20 04:54:29;;;;;;;9.20;7.30;;;;;;;1.71;79.05;99886.42;86615;1292;22463;-75
2022/10/20 04:56:30;;;;;;;14.10;7.90;;;;;;;1.68;79.03;99885.55;86560;1285;22481;-76
2022/10/20 04:58:34;;;;;;;11.70;7.60;;;;;;;1.68;79.35;99883.30;86459;1295;98979;-75
2022/10/20 05:00:36;;;;;;;13.30;9.20;;;;;;;1.68;79.11;99883.98;86525;1287;25868;-76
2022/10/20 05:02:37;;;;;;;21.50;8.20;;;;;;;1.69;79.27;99881.23;86430;1287;22569;-74
2022/10/20 05:04:38;;;;;;;8.50;7.60;;;;;;;1.70;79.15;99885.91;86434;1281;97793;-76
2022/10/20 05:06:40;;;;;;;10.70;7.60;;;;;;;1.71;79.17;99885.22;86657;1292;22498;-75
2022/10/20 05:08:43;;;;;;;9.20;7.90;;;;;;;1.72;79.33;99889.04;86450;1280;25385;-73
2022/10/20 05:10:44;;;;;;;17.40;8.20;;;;;;;1.73;79.34;99889.38;86356;1288;98974;-74
2022/10/20 05:12:44;;;;;;;21.60;8.60;;;;;;;1.75;79.27;99890.42;86497;1281;23163;-74
2022/10/20 05:14:45;;;;;;;62.20;12.40;;;;;;;1.76;79.47;99891.64;86452;1281;22491;-75
2022/10/20 05:16:46;;;;;;;54.50;16.00;;;;;;;1.77;79.40;99894.76;86346;1288;99308;-75
2022/10/20 05:18:48;;;;;;;44.80;14.00;;;;;;;1.77;79.27;99891.81;86547;1286;22771;-76
2022/10/20 05:20:48;;;;;;;39.90;14.20;;;;;;;1.79;79.56;99893.89;86587;1285;26786;-75
2022/10/20 05:22:49;;;;;;;33.00;15.20;;;;;;;1.81;79.67;99893.55;86529;1288;99494;-75
2022/10/20 05:24:50;;;;;;;45.50;14.70;;;;;;;1.82;79.67;99895.11;86485;1295;22696;-76
2022/10/20 05:26:52;;;;;;;23.70;12.90;;;;;;;1.84;79.76;99897.02;86383;1287;25539;-75
2022/10/20 05:28:54;;;;;;;42.20;13.60;;;;;;;1.86;79.39;99902.23;86554;1285;98974;-75
2022/10/20 05:30:55;;;;;;;40.40;13.50;;;;;;;1.89;79.97;99903.97;86628;1284;22472;-75
2022/10/20 05:32:55;;;;;;;42.50;13.00;;;;;;;1.93;79.83;99907.62;86520;1310;25419;-76
2022/10/20 05:34:56;;;;;;;29.00;11.80;;;;;;;1.95;79.69;99910.91;86293;1294;97829;-75
2022/10/20 05:36:57;;;;;;;26.70;12.90;;;;;;;1.97;79.80;99911.79;86645;1278;25419;-74
2022/10/20 05:38:59;;;;;;;33.80;12.80;;;;;;;1.98;79.93;99911.09;86520;1281;22494;-76
2022/10/20 05:41:06;;;;;;;33.60;12.50;;;;;;;2.00;79.80;99911.27;86374;1295;98143;-75
2022/10/20 05:43:08;;;;;;;48.40;12.10;;;;;;;2.02;79.71;99910.58;86668;1285;23518;-75
2022/10/20 05:45:10;;;;;;;15.90;10.80;;;;;;;2.05;79.58;99913.02;86617;1278;24350;-76
2022/10/20 05:47:11;;;;;;;50.40;11.50;;;;;;;2.09;79.56;99915.27;86463;1289;98401;-75
2022/10/20 05:49:15;;;;;;;25.70;11.00;;;;;;;2.08;79.71;99914.74;86544;1310;22640;-75
2022/10/20 05:51:19;;;;;;;26.10;11.20;;;;;;;2.10;79.80;99920.46;86574;1310;22471;-76
2022/10/20 05:53:19;;;;;;;31.60;10.60;;;;;;;2.10;79.75;99921.51;86367;1287;99276;-75
2022/10/20 05:55:20;;;;;;;23.50;10.70;;;;;;;2.10;79.63;99922.04;86545;1287;22077;-76
2022/10/20 05:57:22;;;;;;;24.10;10.30;;;;;;;2.13;79.66;99918.56;86660;1283;22483;-76
2022/10/20 05:59:23;;;;;;;23.30;10.20;;;;;;;2.17;79.85;99927.42;86362;1287;99298;-75
2022/10/20 06:01:38;;;;;;;20.10;11.30;;;;;;;2.22;79.83;99923.95;86313;1281;23983;-75
2022/10/20 06:03:42;;;;;;;30.20;11.90;;;;;;;2.28;79.91;99929.86;85991;1294;99196;-74
2022/10/20 06:05:42;;;;;;;25.90;11.80;;;;;;;2.32;80.23;99927.79;86372;1295;22520;-75
2022/10/20 06:07:44;;;;;;;18.20;11.50;;;;;;;2.38;80.14;99933.50;86232;1288;23395;-75
2022/10/20 06:09:44;;;;;;;;;;;;;;;2.39;79.84;99935.24;86210;1281;99607;-75
2022/10/20 06:11:46;;;;;;;30.40;12.00;;;;;;;2.41;80.15;99935.59;86370;1285;24314;-76
2022/10/20 06:13:47;;;;;;;24.80;11.30;;;;;;;2.46;80.17;99937.84;86264;1287;22526;-76
2022/10/20 06:15:48;;;;;;;29.60;12.20;;;;;;;2.53;80.07;99938.54;86249;1285;98228;-77
2022/10/20 06:17:49;;;;;;;41.40;14.00;;;;;;;2.59;80.40;99938.54;86257;1288;22909;-76
2022/10/20 06:19:50;;;;;;;32.60;14.10;;;;;;;2.66;80.36;99945.30;86224;1288;22490;-71
2022/10/20 06:21:51;;;;;;;;;;;;;;;2.71;80.21;99945.64;86160;1293;99109;-72
2022/10/20 06:23:52;;;;;;;33.40;14.00;;;;;;;2.75;80.28;99946.17;86306;1289;22503;-72
2022/10/20 06:25:53;;;;;;;;;;;;;;;2.80;80.33;99943.55;86195;1278;22498;-73
2022/10/20 06:27:55;;;;;;;31.10;14.10;;;;;;;2.85;80.17;99947.73;86280;1285;85438;-73
2022/10/20 06:29:55;;;;;;;;;;;;;;;2.91;80.21;99948.76;86193;1304;25342;-72
2022/10/20 06:31:56;;;;;;;55.50;19.80;;;;;;;2.95;80.21;99954.48;86221;1285;24684;-72
2022/10/20 06:33:59;;;;;;;23.80;13.20;;;;;;;3.02;80.15;99953.77;86189;1302;99269;-72
2022/10/20 06:36:00;;;;;;;22.60;14.00;;;;;;;3.09;80.33;99952.03;86220;1281;23745;-72
2022/10/20 06:38:01;;;;;;;;;;;;;;;3.16;80.38;99951.14;86214;1284;24269;-71
2022/10/20 06:40:03;;;;;;;28.10;11.90;;;;;;;3.24;80.04;99948.52;86287;1283;84232;-71
2022/10/20 06:42:04;;;;;;;;;;;;;;;3.33;80.25;99946.93;86176;1278;22581;-72
2022/10/20 06:44:06;;;;;;;19.20;11.50;;;;;;;3.40;80.32;99944.48;86159;1295;22494;-72
2022/10/20 06:46:10;;;;;;;22.90;12.60;;;;;;;3.49;80.39;99945.83;86061;1295;98108;-73
2022/10/20 06:48:11;;;;;;;21.80;10.80;;;;;;;3.59;80.40;99943.55;86139;1295;22681;-72
2022/10/20 06:50:12;;;;;;;20.70;12.10;;;;;;;3.68;80.31;99944.54;86193;1285;22478;-72
2022/10/20 06:52:13;;;;;;;26.80;12.50;;;;;;;3.77;80.37;99941.20;86023;1288;98121;-72
2022/10/20 06:54:14;;;;;;;19.50;12.10;;;;;;;3.88;80.42;99941.14;86362;1288;22495;-73
2022/10/20 06:56:23;;;;;;;22.30;11.60;;;;;;;3.98;80.13;99936.05;85966;1312;22516;-72
2022/10/20 06:58:25;;;;;;;26.50;12.00;;;;;;;4.04;80.30;99937.73;86136;1291;98567;-72
2022/10/20 07:00:25;;;;;;;18.70;12.40;;;;;;;4.14;80.46;99938.73;86220;1285;22483;-71
2022/10/20 07:02:27;;;;;;;22.10;11.60;;;;;;;4.24;80.21;99938.14;86239;1281;107644;-72
2022/10/20 07:04:27;;;;;;;36.60;11.90;;;;;;;4.34;80.29;99941.04;86228;1285;99344;-73
2022/10/20 07:06:33;;;;;;;31.70;12.20;;;;;;;4.43;80.13;99942.35;86332;1310;22520;-73
2022/10/20 07:08:35;;;;;;;33.50;13.50;;;;;;;4.55;80.30;99936.88;86232;1288;23654;-72
2022/10/20 07:10:37;;;;;;;40.00;14.70;;;;;;;4.66;80.19;99941.48;86333;1292;99517;-71
2022/10/20 07:12:38;;;;;;;35.00;15.50;;;;;;;4.74;80.23;99938.45;86253;1289;24247;-72
2022/10/20 07:14:38;;;;;;;34.20;15.30;;;;;;;4.84;80.18;99936.61;86280;1281;24240;-72
2022/10/20 07:16:40;;;;;;;37.50;13.40;;;;;;;4.92;80.27;99933.92;86151;1281;99094;-73
2022/10/20 07:18:41;;;;;;;37.10;13.50;;;;;;;5.00;79.97;99936.65;86226;1295;24237;-72
2022/10/20 07:20:42;;;;;;;23.80;13.30;;;;;;;5.08;80.06;99935.16;86174;1285;22499;-72
2022/10/20 07:22:43;;;;;;;28.60;11.60;;;;;;;5.16;79.94;99934.55;86136;1284;98981;-72
2022/10/20 07:24:44;;;;;;;24.20;10.70;;;;;;;5.23;79.85;99935.88;86279;1293;25530;-72
2022/10/20 07:26:44;;;;;;;22.60;12.00;;;;;;;5.32;79.86;99933.17;86240;1285;23520;-72
2022/10/20 07:28:48;;;;;;;23.70;10.80;;;;;;;5.39;79.90;99932.56;86258;1285;99973;-72
2022/10/20 07:30:49;;;;;;;18.00;10.60;;;;;;;5.42;79.57;99931.13;86174;1288;22486;-72
2022/10/20 07:32:50;;;;;;;22.00;10.50;;;;;;;5.46;79.48;99927.60;86250;1294;22475;-71
2022/10/20 07:34:52;;;;;;;19.50;10.40;;;;;;;5.53;79.77;99928.20;86257;1285;99143;-72
2022/10/20 07:36:55;;;;;;;25.50;9.60;;;;;;;5.63;79.64;99925.47;86415;1285;25882;-74
2022/10/20 07:38:58;;;;;;;23.90;10.50;;;;;;;5.76;79.82;99922.85;86129;1288;23340;-72
2022/10/20 07:41:02;;;;;;;14.50;10.90;;;;;;;5.90;79.79;99924.25;86158;1282;99676;-72
2022/10/20 07:43:03;;;;;;;16.40;9.50;;;;;;;6.00;79.75;99923.61;86170;1281;22536;-72
2022/10/20 07:45:05;;;;;;;21.20;10.10;;;;;;;6.16;79.82;99925.30;86208;1295;22502;-72
2022/10/20 07:47:06;;;;;;;28.20;11.70;;;;;;;6.31;79.84;99926.83;86149;1287;99282;-71
2022/10/20 07:49:07;;;;;;;31.80;10.10;;;;;;;6.47;79.79;99923.27;86037;1287;24260;-71
2022/10/20 07:51:15;;;;;;;;;;;;;;;6.63;79.74;99923.34;86140;1295;25370;-73
2022/10/20 07:53:16;;;;;;;17.40;9.50;;;;;;;6.77;79.80;99916.81;86131;1284;84095;-73
2022/10/20 07:55:17;;;;;;;12.10;8.40;;;;;;;6.93;79.41;99917.25;86132;1278;22574;-71
2022/10/20 07:57:18;;;;;;;18.50;9.90;;;;;;;7.08;79.65;99913.47;86108;1295;22505;-71
2022/10/20 07:59:19;;;;;;;16.30;9.50;;;;;;;7.23;79.45;99911.61;85961;1289;99829;-72
2022/10/20 08:01:20;;;;;;;12.60;8.30;;;;;;;7.33;79.08;99916.13;86206;1288;22616;-71
2022/10/20 08:03:21;;;;;;;16.20;8.70;;;;;;;7.39;79.01;99921.45;86048;1287;22675;-73
2022/10/20 08:05:22;;;;;;;22.50;9.20;;;;;;;7.52;79.32;99926.23;86077;1292;98387;-72
2022/10/20 08:07:23;;;;;;;19.90;9.40;;;;;;;7.61;78.96;99926.40;86140;1285;22479;-72
2022/10/20 08:09:24;;;;;;;16.80;9.50;;;;;;;7.66;78.69;99919.14;86297;1282;22462;-71
2022/10/20 08:11:25;;;;;;;13.90;9.10;;;;;;;7.84;79.22;99929.95;86058;1284;99132;-73
2022/10/20 08:13:27;;;;;;;17.50;9.40;;;;;;;7.96;78.71;99925.31;86011;1288;22521;-73
2022/10/20 08:15:28;;;;;;;14.10;8.70;;;;;;;8.04;78.18;99926.53;86041;1281;22599;-71
2022/10/20 08:17:28;;;;;;;20.80;10.10;;;;;;;8.11;78.15;99929.02;86123;1284;99090;-71
2022/10/20 08:19:29;;;;;;;16.90;9.00;;;;;;;8.12;78.10;99928.29;86048;1295;22425;-72
2022/10/20 08:21:31;;;;;;;18.60;9.00;;;;;;;8.13;78.15;99931.58;86111;1285;24276;-72
2022/10/20 08:23:32;;;;;;;17.80;9.10;;;;;;;8.17;78.32;99929.21;86023;1288;98645;-72
2022/10/20 08:25:33;;;;;;;19.00;9.50;;;;;;;8.17;78.17;99927.98;86201;1290;26673;-72
2022/10/20 08:27:34;;;;;;;17.00;9.30;;;;;;;8.22;78.21;99925.77;86290;1286;22490;-72
2022/10/20 08:29:36;;;;;;;19.40;9.20;;;;;;;8.32;78.16;99931.14;86121;1285;98756;-72
2022/10/20 08:31:38;;;;;;;20.20;8.80;;;;;;;8.38;78.00;99933.80;86092;1287;22492;-71
2022/10/20 08:33:39;;;;;;;16.90;8.90;;;;;;;8.43;77.72;99931.42;86172;1282;24087;-72
2022/10/20 08:35:40;;;;;;;21.10;9.20;;;;;;;8.45;77.48;99929.63;86300;1282;26523;-73
2022/10/20 08:37:43;;;;;;;14.80;8.70;;;;;;;8.50;77.67;99930.59;86043;1285;22485;-70
2022/10/20 08:39:44;;;;;;;15.70;9.20;;;;;;;8.57;77.61;99935.33;86079;1289;99585;-72
2022/10/20 08:41:50;;;;;;;19.70;9.90;;;;;;;8.57;77.25;99934.60;86122;1284;22712;-72
2022/10/20 08:43:54;;;;;;;21.50;9.80;;;;;;;8.66;77.50;99936.48;86234;1291;22512;-71
2022/10/20 08:45:55;;;;;;;13.50;8.30;;;;;;;8.83;77.63;99933.10;85997;1288;98433;-71
2022/10/20 08:47:57;;;;;;;17.00;9.10;;;;;;;8.95;77.42;99932.10;86066;1285;22481;-70
2022/10/20 08:49:59;;;;;;;33.50;10.30;;;;;;;9.05;77.47;99930.05;86342;1295;22917;-70
2022/10/20 08:52:01;;;;;;;17.70;9.00;;;;;;;9.12;77.16;99935.84;85925;1288;99596;-73
2022/10/20 08:54:03;;;;;;;17.20;8.60;;;;;;;9.13;77.00;99932.67;86027;1287;22510;-71
2022/10/20 08:56:04;;;;;;;14.10;8.30;;;;;;;9.08;76.71;99936.30;86043;1285;22603;-74
2022/10/20 08:58:12;;;;;;;;;;;;;;;8.98;76.43;99932.34;86082;1288;99200;-72
2022/10/20 09:00:20;;;;;;;16.10;7.70;;;;;;;8.89;76.05;99931.35;86271;1292;24243;-71
2022/10/20 09:02:22;;;;;;;21.40;9.70;;;;;;;8.83;76.38;99928.88;86128;1284;24274;-74
2022/10/20 09:04:40;;;;;;;15.60;6.80;;;;;;;8.89;76.86;99924.89;86171;1286;98858;-71
2022/10/20 09:06:44;;;;;;;22.30;7.10;;;;;;;8.99;76.82;99924.63;86232;1293;22539;-73
2022/10/20 09:08:46;;;;;;;14.60;7.60;;;;;;;9.04;76.45;99920.27;86618;1285;22471;-74
2022/10/20 09:10:50;;;;;;;12.50;7.70;;;;;;;9.00;76.20;99920.02;86444;1294;97981;-73
2022/10/20 09:12:51;;;;;;;13.40;6.70;;;;;;;9.01;76.45;99913.16;86411;1294;22592;-74
2022/10/20 09:14:52;;;;;;;12.60;7.40;;;;;;;9.10;76.60;99910.82;86348;1294;22480;-73
2022/10/20 09:16:54;;;;;;;12.70;7.30;;;;;;;9.15;75.99;99910.00;86381;1286;99348;-73
2022/10/20 09:18:57;;;;;;;19.90;8.70;;;;;;;9.18;76.20;99905.02;86413;1292;22905;-74
2022/10/20 09:21:04;;;;;;;15.00;7.40;;;;;;;9.29;76.57;99899.95;86605;1295;22470;-74
2022/10/20 09:23:12;;;;;;;13.80;6.70;;;;;;;9.37;76.38;99898.50;86339;1284;98827;-74
2022/10/20 09:25:19;;;;;;;19.80;6.40;;;;;;;9.39;76.01;99895.47;86407;1295;22718;-73
2022/10/20 09:27:31;;;;;;;11.20;6.30;;;;;;;9.41;76.01;99896.27;86857;1286;23810;-74
2022/10/20 09:29:36;;;;;;;14.20;6.00;;;;;;;9.40;75.11;99899.30;86316;1289;98886;-73
2022/10/20 09:31:40;;;;;;;11.70;5.70;;;;;;;9.41;75.47;99894.88;86473;1287;22474;-73
2022/10/20 09:33:41;;;;;;;9.40;6.40;;;;;;;9.36;74.37;99892.05;86427;1281;97967;-74
2022/10/20 09:35:47;;;;;;;13.70;6.90;;;;;;;9.26;74.80;99892.66;86367;1288;23021;-73
2022/10/20 09:38:15;;;;;;;10.50;6.10;;;;;;;9.36;75.28;99897.99;86480;1284;22576;-75
2022/10/20 09:40:17;;;;;;;13.40;6.70;;;;;;;9.54;74.85;99899.78;86416;1295;98593;-73
2022/10/20 09:42:23;;;;;;;19.10;8.60;;;;;;;9.65;75.23;99901.39;86559;1282;22537;-73
2022/10/20 09:44:25;;;;;;;21.20;8.20;;;;;;;9.85;75.17;99897.29;86562;1285;25431;-73
2022/10/20 09:46:27;;;;;;;;;;;;;;;10.01;75.00;99897.14;86604;1286;98200;-73